Time;durP1;ratioP1;P1;durP2;ratioP2;P2;SDS_P1;SDS_P2;PMS_P1;PMS_P2;Temp;Humidity;BMP_temperature;BMP_pressure;BME280_temperature;BME280_humidity;BME280_pressure;Samples;Min_cycle;Max_cycle;Signal;HPM_P1;HPM_P2
2023/05/22 00:00:53;;;;;;;6.93;5.07;;;20.30;82.20;;;;;;5132907;27;45488;-69
2023/05/22 00:03:23;;;;;;;7.40;5.20;;;20.30;82.30;;;;;;5140194;27;45532;-69
2023/05/22 00:05:52;;;;;;;7.07;5.38;;;20.30;82.30;;;;;;5126723;27;45392;-70
2023/05/22 00:08:18;;;;;;;6.60;4.90;;;20.30;82.20;;;;;;5127227;27;49278;-69
2023/05/22 00:10:45;;;;;;;6.60;4.72;;;20.30;82.20;;;;;;5126329;27;45397;-69
2023/05/22 00:13:12;;;;;;;6.38;4.97;;;20.30;82.30;;;;;;5132076;27;45434;-69
2023/05/22 00:15:39;;;;;;;6.25;4.60;;;20.30;82.10;;;;;;5135682;27;45419;-69
2023/05/22 00:18:07;;;;;;;6.75;4.80;;;20.30;81.60;;;;;;5142873;27;48776;-70
2023/05/22 00:20:37;;;;;;;8.32;5.20;;;20.30;81.70;;;;;;5143816;27;45431;-69
2023/05/22 00:23:04;;;;;;;7.35;4.80;;;20.30;81.50;;;;;;5137835;27;45558;-69
2023/05/22 00:25:30;;;;;;;7.32;5.00;;;20.30;81.50;;;;;;5140080;27;45404;-69
2023/05/22 00:27:57;;;;;;;6.32;4.75;;;20.30;81.20;;;;;;5137726;27;47483;-69
2023/05/22 00:30:24;;;;;;;5.28;4.28;;;20.30;80.90;;;;;;5125940;27;45285;-69
2023/05/22 00:32:51;;;;;;;7.22;5.10;;;20.30;80.90;;;;;;5125683;27;45351;-69
2023/05/22 00:35:17;;;;;;;5.72;4.43;;;20.30;81.00;;;;;;5145984;27;45350;-69
2023/05/22 00:37:46;;;;;;;8.05;5.32;;;20.30;80.70;;;;;;5132749;27;45304;-69
2023/05/22 00:40:14;;;;;;;7.82;4.57;;;20.30;80.60;;;;;;5144189;27;45330;-70
2023/05/22 00:42:41;;;;;;;5.63;4.40;;;20.30;80.90;;;;;;5135762;27;45440;-69
2023/05/22 00:45:10;;;;;;;6.45;4.93;;;20.30;80.70;;;;;;5129491;27;45308;-69
2023/05/22 00:47:37;;;;;;;5.88;4.53;;;20.30;82.00;;;;;;5142382;27;48036;-69
2023/05/22 00:50:05;;;;;;;6.32;4.78;;;20.30;81.40;;;;;;5126217;27;45365;-69
2023/05/22 00:52:34;;;;;;;5.90;4.68;;;20.30;81.70;;;;;;5129345;27;45343;-69
2023/05/22 00:55:03;;;;;;;7.30;5.10;;;20.30;81.70;;;;;;5131304;27;45422;-70
2023/05/22 00:57:32;;;;;;;7.60;5.13;;;20.30;81.80;;;;;;5142377;27;47270;-69
2023/05/22 01:00:00;;;;;;;6.35;4.75;;;20.30;82.00;;;;;;5132209;27;45452;-69
2023/05/22 01:02:27;;;;;;;5.38;4.40;;;20.30;82.00;;;;;;5124727;27;45403;-69
2023/05/22 01:04:56;;;;;;;5.95;4.40;;;20.30;82.00;;;;;;5125639;27;45529;-69
2023/05/22 01:07:23;;;;;;;6.28;4.47;;;20.30;81.80;;;;;;5147432;27;45295;-69
2023/05/22 01:09:51;;;;;;;7.85;5.07;;;20.30;81.70;;;;;;5135503;27;45488;-69
2023/05/22 01:12:27;;;;;;;6.32;4.70;;;20.30;81.80;;;;;;5136688;27;45365;-69
2023/05/22 01:15:03;;;;;;;7.10;4.05;;;20.30;81.70;;;;;;5134862;27;45644;-70
2023/05/22 01:17:39;;;;;;;6.20;4.47;;;20.30;81.40;;;;;;5145120;27;48008;-70
2023/05/22 01:20:14;;;;;;;5.55;4.47;;;20.30;81.30;;;;;;5144634;27;45452;-69
2023/05/22 01:23:18;;;;;;;6.05;4.50;;;20.30;81.30;;;;;;5126741;27;45394;-69
2023/05/22 01:26:23;;;;;;;6.15;4.32;;;20.30;81.10;;;;;;5103107;27;45359;-70
2023/05/22 01:29:11;;;;;;;6.50;4.57;;;20.30;80.90;;;;;;5100958;27;45447;-69
2023/05/22 01:31:43;;;;;;;5.93;4.40;;;20.30;80.70;;;;;;5141386;27;45444;-69
2023/05/22 01:34:12;;;;;;;5.38;4.10;;;20.30;80.40;;;;;;5126639;27;45356;-70
2023/05/22 01:36:40;;;;;;;5.35;4.15;;;20.30;80.80;;;;;;5124189;27;45480;-69
2023/05/22 01:39:07;;;;;;;4.97;3.85;;;20.30;80.50;;;;;;5130252;27;46334;-69
2023/05/22 01:41:35;;;;;;;5.47;4.07;;;20.30;80.40;;;;;;5127478;27;46232;-69
2023/05/22 01:44:02;;;;;;;5.35;3.83;;;20.30;80.20;;;;;;5136656;27;45378;-70
2023/05/22 01:46:30;;;;;;;6.00;4.43;;;20.30;80.30;;;;;;5124159;27;45443;-69
2023/05/22 01:48:58;;;;;;;5.10;3.83;;;20.30;80.30;;;;;;5133441;27;46608;-70
2023/05/22 01:51:33;;;;;;;5.78;3.95;;;20.30;80.60;;;;;;5124154;27;45343;-69
2023/05/22 01:54:06;;;;;;;6.20;4.40;;;20.30;80.70;;;;;;5123236;27;45413;-69
2023/05/22 01:56:39;;;;;;;5.97;4.25;;;20.40;80.90;;;;;;5140620;27;45439;-69
2023/05/22 01:59:13;;;;;;;4.93;3.85;;;20.30;81.00;;;;;;5129879;27;47394;-69
2023/05/22 02:01:42;;;;;;;4.75;3.92;;;20.30;80.90;;;;;;5135327;27;45464;-69
2023/05/22 02:04:11;;;;;;;5.50;4.32;;;20.30;80.90;;;;;;5160140;27;45326;-70
2023/05/22 02:06:39;;;;;;;4.65;3.58;;;20.30;80.80;;;;;;5127600;27;45260;-70
2023/05/22 02:09:07;;;;;;;6.30;4.28;;;20.30;80.80;;;;;;5141573;27;45352;-70
2023/05/22 02:11:35;;;;;;;5.63;4.00;;;20.30;80.80;;;;;;5132365;27;45416;-69
2023/05/22 02:14:02;;;;;;;5.30;3.88;;;20.30;81.00;;;;;;5134674;27;45434;-69
2023/05/22 02:16:29;;;;;;;4.80;3.88;;;20.30;80.90;;;;;;5144194;27;45510;-69
2023/05/22 02:19:04;;;;;;;4.90;3.60;;;20.30;80.80;;;;;;5150241;27;48100;-69
2023/05/22 02:21:33;;;;;;;5.28;3.97;;;20.30;81.60;;;;;;5126710;27;45394;-70
2023/05/22 02:24:00;;;;;;;5.47;4.32;;;20.30;80.50;;;;;;5128834;27;45263;-69
2023/05/22 02:26:27;;;;;;;5.25;3.67;;;20.30;80.40;;;;;;5135846;27;45381;-69
2023/05/22 02:28:54;;;;;;;4.82;3.45;;;20.30;80.70;;;;;;5124054;27;45247;-69
2023/05/22 02:31:21;;;;;;;5.18;3.83;;;20.30;80.30;;;;;;5131585;27;45396;-69
2023/05/22 02:33:48;;;;;;;5.32;3.50;;;20.30;79.90;;;;;;5142906;27;45409;-69
2023/05/22 02:36:14;;;;;;;5.20;3.95;;;20.30;79.80;;;;;;5141456;27;45291;-70
2023/05/22 02:38:43;;;;;;;4.60;3.70;;;20.30;79.90;;;;;;5135840;27;46612;-69
2023/05/22 02:41:09;;;;;;;5.90;3.92;;;20.30;79.70;;;;;;5129938;27;45330;-69
2023/05/22 02:43:36;;;;;;;5.30;3.97;;;20.30;79.70;;;;;;5142447;27;45362;-70
2023/05/22 02:46:03;;;;;;;4.75;3.72;;;20.30;79.70;;;;;;5133311;27;45221;-69
2023/05/22 02:48:30;;;;;;;4.70;3.47;;;20.30;79.40;;;;;;5135510;27;46452;-69
2023/05/22 02:50:56;;;;;;;4.65;3.63;;;20.30;79.60;;;;;;5134123;27;45336;-70
2023/05/22 02:53:23;;;;;;;5.35;3.78;;;20.30;79.60;;;;;;5129963;27;45457;-69
2023/05/22 02:55:51;;;;;;;4.60;3.55;;;20.30;79.60;;;;;;5122381;27;45608;-70
2023/05/22 02:58:20;;;;;;;4.50;3.45;;;20.30;79.60;;;;;;5128223;27;46561;-69
2023/05/22 03:00:47;;;;;;;4.32;3.42;;;20.30;80.10;;;;;;5134788;27;45298;-70
2023/05/22 03:03:16;;;;;;;5.57;3.75;;;20.30;79.50;;;;;;5138858;27;45316;-69
2023/05/22 03:05:44;;;;;;;4.63;3.53;;;20.30;79.40;;;;;;5144208;27;45262;-69
2023/05/22 03:08:11;;;;;;;4.60;3.47;;;20.30;79.50;;;;;;5149123;27;47281;-70
2023/05/22 03:10:38;;;;;;;4.97;3.60;;;20.30;79.40;;;;;;5130460;27;45413;-69
2023/05/22 03:13:06;;;;;;;4.25;3.45;;;20.30;79.50;;;;;;5130489;27;45358;-69
2023/05/22 03:15:33;;;;;;;4.47;3.47;;;20.30;79.40;;;;;;5123014;27;45339;-69
2023/05/22 03:18:00;;;;;;;4.15;3.42;;;20.30;79.30;;;;;;5139610;27;47563;-69
2023/05/22 03:20:26;;;;;;;3.97;3.40;;;20.30;79.50;;;;;;5126430;27;45326;-70
2023/05/22 03:22:53;;;;;;;4.43;3.33;;;20.30;79.40;;;;;;5125717;27;45415;-69
2023/05/22 03:25:20;;;;;;;5.25;3.60;;;20.30;79.30;;;;;;5130017;27;45261;-69
2023/05/22 03:27:47;;;;;;;3.97;3.20;;;20.30;79.30;;;;;;5136006;27;45347;-70
2023/05/22 03:30:16;;;;;;;4.35;3.30;;;20.30;79.30;;;;;;5128507;27;45405;-70
2023/05/22 03:32:43;;;;;;;4.50;3.53;;;20.30;79.20;;;;;;5130183;27;45381;-69
2023/05/22 03:35:11;;;;;;;3.53;3.10;;;20.30;79.20;;;;;;5133994;27;45386;-69
2023/05/22 03:37:38;;;;;;;4.30;3.38;;;20.30;79.00;;;;;;5131784;27;46313;-69
2023/05/22 03:40:06;;;;;;;6.03;3.70;;;20.30;78.90;;;;;;5134909;27;45459;-70
2023/05/22 03:42:33;;;;;;;5.00;3.53;;;20.30;79.10;;;;;;5133154;27;45333;-69
2023/05/22 03:45:00;;;;;;;3.90;3.10;;;20.30;78.70;;;;;;5126942;27;45481;-69
2023/05/22 03:47:28;;;;;;;4.18;3.40;;;20.30;79.00;;;;;;5141758;27;47526;-69
2023/05/22 03:49:55;;;;;;;3.97;3.13;;;20.30;78.80;;;;;;5153275;27;45418;-70
2023/05/22 03:52:22;;;;;;;4.38;3.33;;;20.30;79.20;;;;;;5140497;27;45451;-69
2023/05/22 03:54:49;;;;;;;4.05;2.88;;;20.30;78.90;;;;;;5130640;27;45629;-69
2023/05/22 03:57:18;;;;;;;4.90;3.35;;;20.30;79.00;;;;;;5134390;27;46578;-69
2023/05/22 03:59:45;;;;;;;4.60;3.58;;;20.30;78.70;;;;;;5146885;27;45204;-69
2023/05/22 04:02:15;;;;;;;4.45;3.53;;;20.30;78.80;;;;;;5147382;27;45262;-70
2023/05/22 04:04:44;;;;;;;4.18;3.22;;;20.30;78.90;;;;;;5140056;27;45678;-69
2023/05/22 04:07:12;;;;;;;4.22;3.50;;;20.30;78.80;;;;;;5126804;27;46513;-69
2023/05/22 04:09:39;;;;;;;4.57;3.47;;;20.30;78.90;;;;;;5136685;27;45671;-69
2023/05/22 04:12:07;;;;;;;3.95;3.20;;;20.30;78.90;;;;;;5128995;27;45493;-69
2023/05/22 04:14:34;;;;;;;4.93;3.50;;;20.30;79.00;;;;;;5141087;27;45415;-70
2023/05/22 04:17:01;;;;;;;5.03;3.30;;;20.30;79.00;;;;;;5135199;27;46611;-69
2023/05/22 04:19:28;;;;;;;4.22;3.33;;;20.30;78.70;;;;;;5151300;27;45339;-69
2023/05/22 04:21:58;;;;;;;4.32;3.53;;;20.30;78.80;;;;;;5146109;27;45490;-69
2023/05/22 04:24:26;;;;;;;4.15;3.10;;;20.30;79.00;;;;;;5148341;27;46034;-70
2023/05/22 04:26:53;;;;;;;4.07;3.33;;;20.30;78.90;;;;;;5126588;27;47987;-69
2023/05/22 04:29:21;;;;;;;5.28;4.18;;;20.30;78.50;;;;;;5132815;27;45408;-69
2023/05/22 04:31:48;;;;;;;4.80;3.70;;;20.30;78.50;;;;;;5140874;27;45323;-69
2023/05/22 04:34:15;;;;;;;6.93;3.83;;;20.30;78.50;;;;;;5135604;27;45304;-69
2023/05/22 04:36:43;;;;;;;4.57;3.67;;;20.30;78.50;;;;;;5127765;27;47089;-69
2023/05/22 04:39:12;;;;;;;4.53;3.58;;;20.30;78.50;;;;;;5142510;27;45330;-69
2023/05/22 04:41:39;;;;;;;5.30;4.00;;;20.30;78.50;;;;;;5125970;27;45246;-69
2023/05/22 04:44:06;;;;;;;5.20;3.67;;;20.30;78.50;;;;;;5139798;27;45240;-70
2023/05/22 04:46:34;;;;;;;4.05;3.40;;;20.30;78.50;;;;;;5128841;27;46596;-69
2023/05/22 04:49:02;;;;;;;4.72;3.50;;;20.30;78.50;;;;;;5136411;27;45405;-70
2023/05/22 04:51:30;;;;;;;5.10;3.60;;;20.30;78.50;;;;;;5128447;27;45424;-70
2023/05/22 04:53:57;;;;;;;4.70;3.92;;;20.30;78.50;;;;;;5125127;27;45203;-70
2023/05/22 04:56:25;;;;;;;5.05;3.90;;;20.30;78.50;;;;;;5129304;27;45403;-69
2023/05/22 04:58:54;;;;;;;5.47;4.05;;;20.30;78.60;;;;;;5128465;27;45296;-70
2023/05/22 05:01:21;;;;;;;5.63;4.22;;;20.30;78.50;;;;;;5129507;27;45527;-70
2023/05/22 05:03:47;;;;;;;5.80;4.13;;;20.30;78.70;;;;;;5126982;27;45430;-69
2023/05/22 05:06:15;;;;;;;5.50;4.20;;;20.30;78.90;;;;;;5133434;27;46626;-69
2023/05/22 05:08:43;;;;;;;6.65;4.53;;;20.30;78.90;;;;;;5136529;27;45337;-70
2023/05/22 05:11:09;;;;;;;5.38;3.90;;;20.30;79.00;;;;;;5146382;27;45324;-69
2023/05/22 05:13:37;;;;;;;5.63;4.22;;;20.30;79.00;;;;;;5129101;27;45599;-69
2023/05/22 05:16:05;;;;;;;5.20;3.90;;;20.20;78.90;;;;;;5139082;27;47122;-69
2023/05/22 05:18:32;;;;;;;5.35;4.07;;;20.20;79.00;;;;;;5129572;27;45488;-69
2023/05/22 05:20:58;;;;;;;7.72;4.00;;;20.20;79.00;;;;;;5125384;27;45352;-71
2023/05/22 05:23:25;;;;;;;5.80;4.38;;;20.20;79.00;;;;;;5134139;27;45432;-71
2023/05/22 05:25:52;;;;;;;5.45;4.13;;;20.20;79.20;;;;;;5124944;27;47507;-71
2023/05/22 05:28:20;;;;;;;5.57;4.03;;;20.20;79.20;;;;;;5132372;27;45752;-70
2023/05/22 05:30:48;;;;;;;6.30;4.25;;;20.20;79.10;;;;;;5126237;27;45591;-70
2023/05/22 05:33:14;;;;;;;6.82;4.53;;;20.20;79.20;;;;;;5137556;27;45326;-70
2023/05/22 05:35:41;;;;;;;5.68;4.25;;;20.30;79.20;;;;;;5136866;27;46550;-70
2023/05/22 05:38:08;;;;;;;4.90;3.95;;;20.30;79.20;;;;;;5127289;27;45434;-69
2023/05/22 05:40:35;;;;;;;6.82;4.20;;;20.30;79.20;;;;;;5127285;27;45393;-69
2023/05/22 05:43:02;;;;;;;6.65;4.40;;;20.30;79.50;;;;;;5125752;27;45323;-69
2023/05/22 05:45:29;;;;;;;7.07;4.72;;;20.30;80.30;;;;;;5145794;27;46662;-70
2023/05/22 05:47:57;;;;;;;7.90;5.30;;;20.30;80.80;;;;;;5125431;27;45331;-69
2023/05/22 05:50:24;;;;;;;8.00;5.57;;;20.30;81.00;;;;;;5125445;27;45352;-69
2023/05/22 05:52:51;;;;;;;10.43;6.13;;;20.30;81.10;;;;;;5124516;27;45294;-69
2023/05/22 05:55:18;;;;;;;10.68;6.10;;;20.30;81.00;;;;;;5127800;27;47099;-69
2023/05/22 05:57:45;;;;;;;13.13;7.75;;;20.20;81.00;;;;;;5129109;27;45255;-70
2023/05/22 06:00:13;;;;;;;8.90;6.00;;;20.20;81.70;;;;;;5124059;27;45374;-70
2023/05/22 06:02:40;;;;;;;10.18;6.45;;;20.20;80.80;;;;;;5139678;27;45417;-71
2023/05/22 06:05:09;;;;;;;9.18;6.43;;;20.20;81.10;;;;;;5134110;27;47510;-69
2023/05/22 06:07:38;;;;;;;10.35;6.40;;;20.30;81.70;;;;;;5126350;27;45470;-70
2023/05/22 06:10:05;;;;;;;8.73;5.80;;;20.20;81.60;;;;;;5126642;27;45453;-69
2023/05/22 06:12:32;;;;;;;8.55;5.97;;;20.20;81.20;;;;;;5129378;27;45434;-69
2023/05/22 06:14:59;;;;;;;8.05;5.30;;;20.20;81.30;;;;;;5132055;27;47245;-69
2023/05/22 06:17:26;;;;;;;9.25;5.50;;;20.20;81.30;;;;;;5123639;27;45343;-71
2023/05/22 06:19:53;;;;;;;7.18;5.13;;;20.30;81.70;;;;;;5128087;27;45275;-70
2023/05/22 06:22:24;;;;;;;8.57;5.63;;;20.20;81.50;;;;;;5128935;27;45315;-71
2023/05/22 06:24:51;;;;;;;7.55;5.22;;;20.30;81.70;;;;;;5130455;27;46286;-71
2023/05/22 06:27:18;;;;;;;7.22;4.88;;;20.30;81.50;;;;;;5130763;27;45441;-70
2023/05/22 06:29:45;;;;;;;9.13;5.20;;;20.30;81.70;;;;;;5124895;27;45594;-70
2023/05/22 06:32:12;;;;;;;8.65;5.15;;;20.30;81.90;;;;;;5124351;27;45485;-70
2023/05/22 06:34:39;;;;;;;6.95;4.78;;;20.30;81.70;;;;;;5127620;27;47040;-70
2023/05/22 06:37:06;;;;;;;7.03;4.45;;;20.30;81.50;;;;;;5121377;27;45463;-70
2023/05/22 06:39:34;;;;;;;8.52;4.90;;;20.30;81.20;;;;;;5126822;27;45577;-70
2023/05/22 06:42:01;;;;;;;8.60;4.95;;;20.30;81.00;;;;;;5126353;27;45324;-70
2023/05/22 06:44:27;;;;;;;7.45;4.57;;;20.30;80.80;;;;;;5125342;27;45383;-70
2023/05/22 06:46:54;;;;;;;8.18;4.28;;;20.30;80.80;;;;;;5133741;27;45737;-70
2023/05/22 06:49:21;;;;;;;7.15;4.82;;;20.30;80.80;;;;;;5130988;27;45454;-70
2023/05/22 06:51:48;;;;;;;6.63;4.75;;;20.30;80.70;;;;;;5123239;27;45563;-67
2023/05/22 06:54:15;;;;;;;8.13;4.68;;;20.30;80.60;;;;;;5124744;27;47656;-68
2023/05/22 06:56:43;;;;;;;7.38;4.47;;;20.30;80.70;;;;;;5128406;27;45249;-69
2023/05/22 06:59:10;;;;;;;8.52;4.72;;;20.30;80.80;;;;;;5123436;27;45363;-69
2023/05/22 07:01:37;;;;;;;7.28;4.90;;;20.30;81.00;;;;;;5123243;27;45658;-69
2023/05/22 07:04:04;;;;;;;5.53;4.25;;;20.30;81.10;;;;;;5128010;27;45275;-69
2023/05/22 07:06:32;;;;;;;5.95;4.18;;;20.30;81.30;;;;;;5130640;27;45297;-69
2023/05/22 07:08:59;;;;;;;8.13;4.88;;;20.30;81.30;;;;;;5131562;27;45326;-69
2023/05/22 07:11:26;;;;;;;5.97;4.32;;;20.30;81.40;;;;;;5135653;27;45533;-68
2023/05/22 07:13:54;;;;;;;6.65;4.38;;;20.30;81.60;;;;;;5131735;27;46570;-69
2023/05/22 07:16:21;;;;;;;5.97;4.53;;;20.30;81.60;;;;;;5135134;27;45364;-70
2023/05/22 07:18:48;;;;;;;7.45;4.80;;;20.30;81.70;;;;;;5127531;27;45540;-72
2023/05/22 07:21:15;;;;;;;6.75;4.53;;;20.30;81.70;;;;;;5132398;27;45346;-69
2023/05/22 07:23:42;;;;;;;7.85;4.60;;;20.30;81.50;;;;;;5135288;27;46076;-69
2023/05/22 07:26:09;;;;;;;6.80;4.40;;;20.30;81.40;;;;;;5134532;27;45294;-70
2023/05/22 07:28:36;;;;;;;6.32;4.43;;;20.30;81.40;;;;;;5132004;27;45422;-70
2023/05/22 07:31:04;;;;;;;6.30;4.32;;;20.30;81.40;;;;;;5140637;27;45560;-69
2023/05/22 07:33:31;;;;;;;6.03;4.45;;;20.30;81.30;;;;;;5134088;27;45415;-69
2023/05/22 07:35:57;;;;;;;6.72;4.60;;;20.30;81.20;;;;;;5142248;27;45399;-69
2023/05/22 07:38:24;;;;;;;6.43;4.30;;;20.30;81.20;;;;;;5127138;27;45265;-70
2023/05/22 07:40:51;;;;;;;6.95;4.63;;;20.30;81.10;;;;;;5131981;27;45664;-69
2023/05/22 07:43:18;;;;;;;9.20;4.20;;;20.30;81.00;;;;;;5135697;27;45417;-69
2023/05/22 07:45:44;;;;;;;6.55;3.95;;;20.40;81.00;;;;;;5131107;27;46117;-68
2023/05/22 07:48:13;;;;;;;5.13;3.63;;;20.40;80.90;;;;;;5139265;27;45354;-70
2023/05/22 07:50:43;;;;;;;7.03;4.07;;;20.40;80.80;;;;;;5130584;27;45410;-70
2023/05/22 07:53:10;;;;;;;6.57;4.20;;;20.40;80.90;;;;;;5126777;27;46426;-70
2023/05/22 07:55:38;;;;;;;6.32;4.13;;;20.40;81.00;;;;;;5131490;27;45370;-69
2023/05/22 07:58:04;;;;;;;5.97;3.88;;;20.40;81.00;;;;;;5138124;27;45476;-69
2023/05/22 08:00:31;;;;;;;6.10;4.43;;;20.40;81.10;;;;;;5129240;27;45530;-69
2023/05/22 08:02:58;;;;;;;6.82;4.47;;;20.40;81.30;;;;;;5126455;27;46266;-69
2023/05/22 08:05:26;;;;;;;6.43;4.30;;;20.40;81.50;;;;;;5134351;27;45281;-69
2023/05/22 08:07:53;;;;;;;6.90;4.43;;;20.30;81.60;;;;;;5129670;27;45214;-70
2023/05/22 08:10:20;;;;;;;6.35;4.25;;;20.30;81.50;;;;;;5135960;27;45537;-69
2023/05/22 08:12:47;;;;;;;6.78;4.60;;;20.30;81.80;;;;;;5129711;27;45333;-69
2023/05/22 08:15:13;;;;;;;6.95;4.65;;;20.30;81.70;;;;;;5138745;27;45367;-69
2023/05/22 08:17:40;;;;;;;5.70;4.20;;;20.30;81.70;;;;;;5135638;27;45276;-69
2023/05/22 08:20:08;;;;;;;6.05;4.35;;;20.30;81.50;;;;;;5125657;27;45272;-69
2023/05/22 08:22:38;;;;;;;7.95;4.65;;;20.30;81.60;;;;;;5140482;27;46341;-68
2023/05/22 08:25:05;;;;;;;5.60;4.22;;;20.30;81.40;;;;;;5139366;27;45375;-69
2023/05/22 08:27:32;;;;;;;6.95;4.70;;;20.30;81.40;;;;;;5134999;27;45364;-68
2023/05/22 08:29:59;;;;;;;7.88;4.57;;;20.30;81.50;;;;;;5136167;27;45787;-69
2023/05/22 08:32:25;;;;;;;8.48;4.88;;;20.30;81.70;;;;;;5128098;27;47066;-69
2023/05/22 08:34:52;;;;;;;7.18;4.75;;;20.30;81.60;;;;;;5133650;27;45710;-68
2023/05/22 08:37:19;;;;;;;7.25;5.20;;;20.30;81.70;;;;;;5142816;27;45311;-69
2023/05/22 08:39:48;;;;;;;6.13;4.50;;;20.30;81.70;;;;;;5125968;27;45501;-69
2023/05/22 08:42:14;;;;;;;9.52;4.75;;;20.30;81.50;;;;;;5134331;27;45293;-69
2023/05/22 08:44:41;;;;;;;6.90;4.93;;;20.40;81.70;;;;;;5123902;27;45347;-69
2023/05/22 08:47:10;;;;;;;7.47;4.50;;;20.30;81.50;;;;;;5128871;27;45406;-69
2023/05/22 08:49:38;;;;;;;5.50;3.92;;;20.30;81.60;;;;;;5140947;27;45247;-68
2023/05/22 08:52:10;;;;;;;7.03;4.32;;;20.30;81.50;;;;;;5142693;27;45586;-69
2023/05/22 08:54:41;;;;;;;7.32;4.38;;;20.40;81.50;;;;;;5125590;27;46133;-69
2023/05/22 08:57:10;;;;;;;6.95;4.55;;;20.40;81.60;;;;;;5124992;27;45477;-69
2023/05/22 08:59:39;;;;;;;7.97;4.78;;;20.40;81.60;;;;;;5134584;27;45193;-68
2023/05/22 09:02:06;;;;;;;6.85;4.20;;;20.40;81.50;;;;;;5133599;27;45313;-68
2023/05/22 09:04:33;;;;;;;6.78;4.50;;;20.40;81.70;;;;;;5127892;27;45383;-69
2023/05/22 09:07:04;;;;;;;9.88;5.15;;;20.30;81.50;;;;;;5131682;27;45530;-69
2023/05/22 09:09:31;;;;;;;10.05;4.82;;;20.30;81.90;;;;;;5125477;27;45446;-69
2023/05/22 09:11:58;;;;;;;6.43;4.70;;;20.30;81.90;;;;;;5125277;27;46343;-69
2023/05/22 09:14:26;;;;;;;7.25;4.82;;;20.30;81.90;;;;;;5133450;27;45448;-70
2023/05/22 09:16:53;;;;;;;7.05;4.50;;;20.30;82.00;;;;;;5146282;27;45465;-69
2023/05/22 09:19:21;;;;;;;8.50;4.35;;;20.30;81.80;;;;;;5144608;27;45572;-68
2023/05/22 09:21:47;;;;;;;7.43;4.40;;;20.30;81.90;;;;;;5126916;27;45454;-69
2023/05/22 09:24:14;;;;;;;7.85;5.03;;;20.30;81.80;;;;;;5142479;27;45486;-70
2023/05/22 09:26:41;;;;;;;7.03;4.63;;;20.40;81.80;;;;;;5153149;27;45425;-69
2023/05/22 09:29:08;;;;;;;7.60;4.55;;;20.40;82.10;;;;;;5123793;27;45593;-69
2023/05/22 09:31:41;;;;;;;7.80;4.88;;;20.40;82.20;;;;;;5124956;27;47018;-69
2023/05/22 09:34:09;;;;;;;8.75;5.00;;;20.40;82.10;;;;;;5125122;27;45254;-69
2023/05/22 09:36:37;;;;;;;7.97;5.40;;;20.40;82.00;;;;;;5132001;27;45318;-68
2023/05/22 09:39:04;;;;;;;7.82;5.10;;;20.40;81.90;;;;;;5142109;27;45433;-69
2023/05/22 09:41:35;;;;;;;7.32;5.18;;;20.40;81.90;;;;;;5145121;27;47517;-70
2023/05/22 09:44:02;;;;;;;6.70;4.78;;;20.40;81.90;;;;;;5133442;27;45413;-68
2023/05/22 09:46:29;;;;;;;7.47;5.32;;;20.40;81.70;;;;;;5124523;27;45365;-68
2023/05/22 09:48:57;;;;;;;8.73;5.70;;;20.40;82.10;;;;;;5129204;27;45307;-68
2023/05/22 09:51:26;;;;;;;7.55;5.07;;;20.50;82.40;;;;;;5148891;27;46263;-69
2023/05/22 09:53:55;;;;;;;7.13;5.10;;;20.40;82.10;;;;;;5124739;27;45328;-69
2023/05/22 09:56:23;;;;;;;6.63;5.00;;;20.40;81.80;;;;;;5130191;27;45279;-68
2023/05/22 09:58:51;;;;;;;7.80;4.82;;;20.40;81.70;;;;;;5125086;27;45478;-69
2023/05/22 10:01:20;;;;;;;7.78;5.45;;;20.40;81.70;;;;;;5131407;27;46268;-69
2023/05/22 10:03:51;;;;;;;8.63;5.57;;;20.50;81.80;;;;;;5128167;27;45408;-69
2023/05/22 10:06:21;;;;;;;8.90;5.15;;;20.40;81.90;;;;;;5129434;27;45285;-69
2023/05/22 10:08:54;;;;;;;7.13;5.10;;;20.40;82.00;;;;;;5133476;27;45410;-68
2023/05/22 10:11:22;;;;;;;9.07;4.97;;;20.40;82.90;;;;;;5130557;27;47398;-68
2023/05/22 10:13:50;;;;;;;7.53;5.00;;;20.40;81.90;;;;;;5129914;27;45313;-68
2023/05/22 10:16:17;;;;;;;9.63;5.57;;;20.40;82.10;;;;;;5126283;27;45364;-69
2023/05/22 10:18:47;;;;;;;9.23;5.63;;;20.40;82.00;;;;;;5123515;27;45593;-68
2023/05/22 10:21:16;;;;;;;9.60;5.80;;;20.40;82.00;;;;;;5130300;27;46549;-69
2023/05/22 10:23:45;;;;;;;7.95;5.65;;;20.40;82.00;;;;;;5132885;27;45547;-68
2023/05/22 10:26:12;;;;;;;9.50;5.15;;;20.40;82.00;;;;;;5129102;27;45398;-69
2023/05/22 10:28:42;;;;;;;8.45;6.05;;;20.40;81.90;;;;;;5127394;27;45545;-68
2023/05/22 10:31:18;;;;;;;7.55;5.20;;;20.40;81.90;;;;;;5133840;27;45499;-68
2023/05/22 10:33:50;;;;;;;8.27;5.32;;;20.40;81.90;;;;;;5131838;27;45489;-68
2023/05/22 10:36:27;;;;;;;9.07;5.82;;;20.40;81.70;;;;;;5141313;27;45899;-68
2023/05/22 10:39:07;;;;;;;10.68;5.68;;;20.40;81.80;;;;;;5125878;27;45333;-68
2023/05/22 10:41:35;;;;;;;9.13;5.38;;;20.40;81.70;;;;;;5125024;27;45399;-69
2023/05/22 10:44:03;;;;;;;7.78;5.05;;;20.40;81.60;;;;;;5134068;27;45322;-69
2023/05/22 10:46:33;;;;;;;11.40;6.05;;;20.40;81.60;;;;;;5123263;27;45500;-68
2023/05/22 10:49:00;;;;;;;8.35;5.47;;;20.40;81.80;;;;;;5129858;27;45697;-69
2023/05/22 10:51:27;;;;;;;8.82;5.47;;;20.40;81.50;;;;;;5126879;27;45700;-68
2023/05/22 10:54:01;;;;;;;8.35;5.55;;;20.40;81.50;;;;;;5131530;27;45683;-68
2023/05/22 10:56:34;;;;;;;8.20;5.65;;;20.40;81.50;;;;;;5123352;27;45366;-68
2023/05/22 10:59:03;;;;;;;9.07;5.63;;;20.40;81.60;;;;;;5128224;27;45427;-68
2023/05/22 11:01:33;;;;;;;9.95;5.47;;;20.40;81.50;;;;;;5130940;27;48190;-69
2023/05/22 11:04:01;;;;;;;9.35;6.25;;;20.40;81.50;;;;;;5136340;27;45405;-69
2023/05/22 11:06:47;;;;;;;8.95;5.93;;;20.40;81.70;;;;;;5134646;27;45364;-69
2023/05/22 11:09:20;;;;;;;10.68;6.05;;;20.40;82.80;;;;;;5130438;27;45592;-69
2023/05/22 11:11:47;;;;;;;9.40;6.18;;;20.40;81.60;;;;;;5133606;27;46600;-69
2023/05/22 11:14:17;;;;;;;11.23;6.10;;;20.40;81.90;;;;;;5134219;27;45359;-68
2023/05/22 11:16:44;;;;;;;8.85;5.78;;;20.40;81.70;;;;;;5124741;27;45423;-68
2023/05/22 11:19:10;;;;;;;11.88;6.03;;;20.40;81.90;;;;;;5142583;27;45358;-69
2023/05/22 11:21:43;;;;;;;10.13;6.50;;;20.40;81.90;;;;;;5125935;27;48721;-68
2023/05/22 11:24:10;;;;;;;10.15;6.13;;;20.40;81.80;;;;;;5140343;27;45475;-70
2023/05/22 11:26:42;;;;;;;9.10;5.88;;;20.40;81.90;;;;;;5133520;27;45420;-68
2023/05/22 11:29:09;;;;;;;9.98;6.35;;;20.40;81.90;;;;;;5134314;27;45375;-68
2023/05/22 11:31:37;;;;;;;9.25;6.18;;;20.40;82.00;;;;;;5130492;27;45551;-69
2023/05/22 11:34:03;;;;;;;9.57;5.72;;;20.40;81.90;;;;;;5137564;27;45394;-68
2023/05/22 11:36:31;;;;;;;10.52;6.22;;;20.40;81.70;;;;;;5127852;27;45414;-69
2023/05/22 11:38:59;;;;;;;12.32;6.35;;;20.40;81.90;;;;;;5125346;27;45265;-69
2023/05/22 11:41:30;;;;;;;8.82;5.85;;;20.40;81.70;;;;;;5137958;27;45295;-68
2023/05/22 11:43:59;;;;;;;10.60;6.22;;;20.40;81.90;;;;;;5127072;27;45413;-68
2023/05/22 11:46:28;;;;;;;9.70;6.00;;;20.40;81.80;;;;;;5122320;27;45372;-68
2023/05/22 11:48:56;;;;;;;10.43;6.22;;;20.40;82.90;;;;;;5136110;27;45463;-68
2023/05/22 11:51:23;;;;;;;9.52;6.15;;;20.40;81.80;;;;;;5123891;27;45375;-69
2023/05/22 11:53:50;;;;;;;9.23;6.32;;;20.40;81.90;;;;;;5132470;27;45254;-68
2023/05/22 11:56:21;;;;;;;9.65;6.22;;;20.50;81.90;;;;;;5143054;27;45389;-68
2023/05/22 11:58:48;;;;;;;11.13;6.10;;;20.50;81.80;;;;;;5126402;27;45565;-69
2023/05/22 12:01:16;;;;;;;9.20;6.00;;;20.50;81.90;;;;;;5133874;27;45452;-68
2023/05/22 12:03:43;;;;;;;10.43;6.55;;;20.50;82.00;;;;;;5126719;27;45487;-69
2023/05/22 12:06:10;;;;;;;10.98;6.43;;;20.50;82.10;;;;;;5125239;27;45398;-68
2023/05/22 12:08:37;;;;;;;10.75;6.05;;;20.50;82.10;;;;;;5128571;27;45421;-68
2023/05/22 12:11:05;;;;;;;9.02;5.82;;;20.50;82.10;;;;;;5132845;27;47520;-69
2023/05/22 12:13:32;;;;;;;10.18;6.47;;;20.40;82.20;;;;;;5131413;27;45418;-69
2023/05/22 12:16:00;;;;;;;9.30;5.88;;;20.50;82.30;;;;;;5133558;27;45283;-69
2023/05/22 12:18:35;;;;;;;9.68;5.90;;;20.40;82.30;;;;;;5132388;27;45718;-69
2023/05/22 12:21:05;;;;;;;11.07;6.30;;;20.50;82.40;;;;;;5125372;27;48609;-68
2023/05/22 12:23:32;;;;;;;10.80;5.90;;;20.40;82.50;;;;;;5131191;27;45427;-68
2023/05/22 12:26:00;;;;;;;12.75;6.68;;;20.40;82.60;;;;;;5125792;27;45382;-68
2023/05/22 12:28:27;;;;;;;11.82;6.80;;;20.40;82.70;;;;;;5134727;27;45451;-68
2023/05/22 12:30:55;;;;;;;9.65;6.18;;;20.40;82.80;;;;;;5131869;27;45375;-68
2023/05/22 12:33:27;;;;;;;13.07;7.00;;;20.50;82.80;;;;;;5125115;27;45347;-69
2023/05/22 12:35:57;;;;;;;9.27;6.55;;;20.40;82.90;;;;;;5124352;27;45506;-68
2023/05/22 12:38:25;;;;;;;10.82;6.78;;;20.50;82.60;;;;;;5125386;27;45571;-69
2023/05/22 12:40:52;;;;;;;11.95;6.97;;;20.40;82.50;;;;;;5124943;27;48037;-69
2023/05/22 12:43:18;;;;;;;9.57;5.85;;;20.50;82.60;;;;;;5124778;27;45717;-68
2023/05/22 12:45:45;;;;;;;11.63;6.78;;;20.50;82.40;;;;;;5133939;27;45494;-68
2023/05/22 12:48:12;;;;;;;11.45;7.10;;;20.50;82.60;;;;;;5129446;27;45347;-69
2023/05/22 12:50:40;;;;;;;10.50;6.57;;;20.50;82.50;;;;;;5130435;27;47957;-68